Time;durP1;ratioP1;P1;durP2;ratioP2;P2;SDS_P1;SDS_P2;PMS_P1;PMS_P2;Temp;Humidity;BMP_temperature;BMP_pressure;BME280_temperature;BME280_humidity;BME280_pressure;Samples;Min_cycle;Max_cycle;Signal;HPM_P1;HPM_P2
2023/02/11 00:00:45;;;;;;;6.93;2.58;;;;;13.20;103190.00;;;;5049633;28;20215;-73
2023/02/11 00:03:13;;;;;;;11.00;2.10;;;;;13.20;103188.00;;;;5050615;28;20204;-72
2023/02/11 00:05:40;;;;;;;8.77;2.67;;;;;13.20;103195.00;;;;5049672;28;20469;-72
2023/02/11 00:08:08;;;;;;;6.45;2.45;;;;;13.20;103194.00;;;;5049725;28;20192;-72
2023/02/11 00:10:35;;;;;;;6.65;2.22;;;;;13.20;103195.00;;;;5049245;28;20207;-72
2023/02/11 00:13:03;;;;;;;4.20;1.90;;;;;13.20;103191.00;;;;5051720;28;20204;-72
2023/02/11 00:15:31;;;;;;;4.95;1.70;;;;;13.20;103186.00;;;;5053154;28;20191;-73
2023/02/11 00:17:58;;;;;;;9.80;2.35;;;;;13.20;103171.00;;;;5068901;28;20191;-72
2023/02/11 00:20:25;;;;;;;8.27;1.85;;;;;13.20;103179.00;;;;5067093;28;20225;-72
2023/02/11 00:22:52;;;;;;;7.65;1.88;;;;;13.20;103186.00;;;;5049393;28;20578;-72
2023/02/11 00:25:20;;;;;;;7.55;2.20;;;;;13.20;103187.00;;;;5049221;28;20195;-73
2023/02/11 00:27:47;;;;;;;11.02;2.25;;;;;13.20;103186.00;;;;5049632;28;20192;-73
2023/02/11 00:30:16;;;;;;;8.20;1.73;;;;;13.20;103184.00;;;;5049999;28;20677;-73
2023/02/11 00:32:43;;;;;;;5.57;1.98;;;;;13.20;103194.00;;;;5049126;28;20200;-73
2023/02/11 00:35:11;;;;;;;5.68;1.83;;;;;13.20;103181.00;;;;5049587;28;20200;-73
2023/02/11 00:37:38;;;;;;;4.22;2.00;;;;;13.20;103177.00;;;;5052851;28;20199;-73
2023/02/11 00:40:06;;;;;;;6.53;2.70;;;;;13.20;103192.00;;;;5069077;28;20187;-73
2023/02/11 00:42:34;;;;;;;7.60;2.25;;;;;13.20;103184.00;;;;5063886;28;20210;-73
2023/02/11 00:45:02;;;;;;;8.68;2.75;;;;;13.20;103189.00;;;;5068641;28;20580;-73
2023/02/11 00:47:30;;;;;;;7.00;1.83;;;;;13.20;103189.00;;;;5056063;28;20238;-73
2023/02/11 00:49:59;;;;;;;9.63;2.35;;;;;13.20;103184.00;;;;5048937;28;20195;-73
2023/02/11 00:52:27;;;;;;;9.13;2.65;;;;;13.20;103190.00;;;;5053469;28;20661;-73
2023/02/11 00:54:54;;;;;;;9.90;2.20;;;;;13.20;103195.00;;;;5067939;28;20209;-73
2023/02/11 00:57:21;;;;;;;7.57;2.60;;;;;13.20;103187.00;;;;5062142;28;20203;-73
2023/02/11 00:59:49;;;;;;;8.57;2.60;;;;;13.20;103190.00;;;;5049128;28;20232;-73
2023/02/11 01:02:17;;;;;;;11.73;2.72;;;;;13.20;103187.00;;;;5051623;28;20558;-73
2023/02/11 01:04:45;;;;;;;10.13;2.63;;;;;13.20;103179.00;;;;5052822;28;20211;-73
2023/02/11 01:07:13;;;;;;;5.80;2.28;;;;;13.20;103176.00;;;;5048735;28;20215;-73
2023/02/11 01:09:40;;;;;;;10.38;2.25;;;;;13.20;103181.00;;;;5048770;28;20330;-73
2023/02/11 01:12:07;;;;;;;5.53;2.58;;;;;13.20;103168.00;;;;5049088;28;20191;-73
2023/02/11 01:14:34;;;;;;;7.97;2.13;;;;;13.20;103169.00;;;;5048913;28;20192;-73
2023/02/11 01:17:02;;;;;;;8.93;3.08;;;;;13.20;103154.00;;;;5066889;28;21023;-73
2023/02/11 01:19:29;;;;;;;8.07;2.75;;;;;13.20;103146.00;;;;5068481;28;20653;-73
2023/02/11 01:21:57;;;;;;;7.93;3.20;;;;;13.10;103152.00;;;;5051733;28;20199;-73
2023/02/11 01:24:25;;;;;;;9.82;3.03;;;;;13.10;103161.00;;;;5051811;28;20666;-73
2023/02/11 01:26:52;;;;;;;8.27;3.03;;;;;13.10;103155.00;;;;5066401;28;20482;-73
2023/02/11 01:29:19;;;;;;;9.20;2.80;;;;;13.20;103157.00;;;;5058493;28;20198;-73
2023/02/11 01:31:47;;;;;;;5.75;2.17;;;;;13.10;103144.00;;;;5048037;28;20588;-73
2023/02/11 01:34:15;;;;;;;7.85;2.58;;;;;13.10;103123.00;;;;5066901;28;20209;-74
2023/02/11 01:36:42;;;;;;;4.75;2.20;;;;;13.10;103130.00;;;;5067975;28;20195;-73
2023/02/11 01:39:11;;;;;;;6.72;2.38;;;;;13.10;103139.00;;;;5063911;28;20621;-73
2023/02/11 01:41:38;;;;;;;9.50;2.40;;;;;13.10;103142.00;;;;5048623;28;20203;-73
2023/02/11 01:44:26;;;;;;;7.45;2.70;;;;;13.00;103154.00;;;;5066665;28;20191;-73
2023/02/11 01:46:53;;;;;;;10.48;2.55;;;;;13.10;103168.00;;;;5048351;28;20243;-73
2023/02/11 01:49:24;;;;;;;8.15;2.42;;;;;13.10;103157.00;;;;5047711;28;20226;-73
2023/02/11 01:51:56;;;;;;;7.40;2.13;;;;;13.10;103161.00;;;;5052476;28;20739;-74
2023/02/11 01:57:23;;;;;;;6.60;2.50;;;;;13.00;103172.00;;;;5061585;28;20198;-73
2023/02/11 02:00:01;;;;;;;7.80;2.33;;;;;13.00;103165.00;;;;5049349;28;20229;-73
2023/02/11 02:02:34;;;;;;;7.28;1.77;;;;;13.00;103165.00;;;;5063809;28;20198;-73
2023/02/11 02:05:08;;;;;;;7.20;2.40;;;;;13.00;103171.00;;;;5047640;28;20218;-72
2023/02/11 02:07:39;;;;;;;3.85;2.20;;;;;13.00;103157.00;;;;5049050;28;20258;-72
2023/02/11 02:10:13;;;;;;;7.38;2.65;;;;;13.00;103159.00;;;;5047119;28;20203;-73
2023/02/11 02:12:40;;;;;;;6.53;2.72;;;;;13.00;103167.00;;;;5047687;28;20200;-72
2023/02/11 02:15:26;;;;;;;7.03;2.65;;;;;12.80;103160.00;;;;5047319;28;20208;-72
2023/02/11 02:18:00;;;;;;;4.03;2.45;;;;;12.90;103162.00;;;;5048295;28;20316;-72
2023/02/11 02:21:09;;;;;;;6.32;2.30;;;;;12.80;103159.00;;;;5047749;28;20195;-72
2023/02/11 02:24:09;;;;;;;7.20;2.40;;;;;12.80;103170.00;;;;5050778;28;20194;-72
2023/02/11 02:27:11;;;;;;;11.75;2.58;;;;;12.80;103164.00;;;;5006178;28;20219;-72
2023/02/11 02:30:08;;;;;;;9.48;2.22;;;;;12.80;103167.00;;;;5050792;28;20207;-72
2023/02/11 02:32:56;;;;;;;9.82;2.50;;;;;12.80;103162.00;;;;5066340;28;20195;-72
2023/02/11 02:35:31;;;;;;;8.63;2.17;;;;;12.90;103164.00;;;;5070203;28;20199;-72
2023/02/11 02:38:02;;;;;;;8.15;2.60;;;;;12.90;103160.00;;;;5054366;28;20206;-72
2023/02/11 02:40:33;;;;;;;8.15;2.30;;;;;12.90;103170.00;;;;5051090;28;20670;-72
2023/02/11 02:43:02;;;;;;;8.93;2.90;;;;;12.90;103163.00;;;;5051054;28;20206;-72
2023/02/11 02:45:30;;;;;;;5.40;2.20;;;;;12.80;103164.00;;;;5055078;28;20199;-72
2023/02/11 02:47:58;;;;;;;9.25;2.58;;;;;12.80;103153.00;;;;5069068;28;20230;-72
2023/02/11 02:50:31;;;;;;;5.90;2.78;;;;;12.80;103138.00;;;;5070646;28;20199;-72
2023/02/11 02:53:15;;;;;;;7.57;2.45;;;;;12.70;103131.00;;;;5069688;28;20206;-72
2023/02/11 02:55:54;;;;;;;8.20;3.15;;;;;12.70;103132.00;;;;5069964;28;20683;-72
2023/02/11 02:58:57;;;;;;;6.68;2.63;;;;;12.60;103135.00;;;;5064313;28;20553;-72
2023/02/11 03:01:34;;;;;;;7.25;2.28;;;;;12.70;103148.00;;;;5064708;28;20218;-72
2023/02/11 03:04:12;;;;;;;5.50;2.35;;;;;12.60;103151.00;;;;5052039;28;20199;-72
2023/02/11 03:06:48;;;;;;;11.90;3.70;;;;;12.60;103153.00;;;;5050234;28;20219;-72
2023/02/11 03:09:21;;;;;;;5.78;2.55;;;;;12.70;103154.00;;;;5062444;28;20192;-72
2023/02/11 03:11:48;;;;;;;10.32;3.55;;;;;12.70;103143.00;;;;5053463;28;20615;-72
2023/02/11 03:14:18;;;;;;;8.73;3.03;;;;;12.70;103145.00;;;;5054724;28;20203;-72
2023/02/11 03:16:47;;;;;;;4.97;2.60;;;;;12.70;103143.00;;;;5056736;28;20195;-72
2023/02/11 03:19:20;;;;;;;7.38;2.85;;;;;12.70;103136.00;;;;5067837;28;20203;-72
2023/02/11 03:21:49;;;;;;;9.10;3.22;;;;;12.70;103132.00;;;;5050515;28;20191;-72
2023/02/11 03:24:21;;;;;;;8.00;3.90;;;;;12.70;103122.00;;;;5050453;28;20195;-72
2023/02/11 03:26:52;;;;;;;5.65;2.83;;;;;12.70;103121.00;;;;5064215;28;20268;-72
2023/02/11 03:29:31;;;;;;;7.55;3.33;;;;;12.60;103109.00;;;;5071301;28;20574;-72
2023/02/11 03:32:05;;;;;;;5.03;3.17;;;;;12.70;103115.00;;;;5050270;28;20630;-72
2023/02/11 03:34:39;;;;;;;8.25;3.50;;;;;12.60;103116.00;;;;5062120;28;20195;-73
2023/02/11 03:37:12;;;;;;;9.23;3.47;;;;;12.60;103117.00;;;;5068926;28;20198;-72
2023/02/11 03:39:44;;;;;;;6.88;3.75;;;;;12.60;103122.00;;;;5069913;28;20199;-72
2023/02/11 03:42:14;;;;;;;11.77;3.55;;;;;12.60;103119.00;;;;5065386;28;20192;-72
2023/02/11 03:44:46;;;;;;;7.85;3.55;;;;;12.60;103111.00;;;;5052243;28;20331;-72
2023/02/11 03:47:15;;;;;;;8.05;3.45;;;;;12.60;103111.00;;;;5058329;28;20696;-72
2023/02/11 03:49:45;;;;;;;11.75;3.75;;;;;12.60;103117.00;;;;5069218;28;20281;-72
2023/02/11 03:52:13;;;;;;;8.23;3.65;;;;;12.60;103113.00;;;;5070184;28;20199;-72
2023/02/11 03:54:43;;;;;;;7.35;3.75;;;;;12.60;103108.00;;;;5055057;28;20211;-73
2023/02/11 03:57:10;;;;;;;8.48;3.67;;;;;12.60;103101.00;;;;5055179;28;20199;-72
2023/02/11 03:59:52;;;;;;;7.50;3.75;;;;;12.50;103096.00;;;;5054599;28;20399;-73
2023/02/11 04:02:20;;;;;;;10.35;3.90;;;;;12.60;103096.00;;;;5070268;28;20695;-72
2023/02/11 04:04:49;;;;;;;9.02;4.10;;;;;12.60;103094.00;;;;5066640;28;20218;-72
2023/02/11 04:07:16;;;;;;;7.32;3.67;;;;;12.60;103093.00;;;;5054731;28;20222;-73
2023/02/11 04:09:43;;;;;;;5.40;3.70;;;;;12.50;103104.00;;;;5055264;28;20198;-72
2023/02/11 04:12:11;;;;;;;7.97;3.88;;;;;12.50;103113.00;;;;5050141;28;20203;-72
2023/02/11 04:14:38;;;;;;;10.65;4.47;;;;;12.50;103123.00;;;;5048854;28;20196;-72
2023/02/11 04:17:05;;;;;;;6.25;3.17;;;;;12.50;103117.00;;;;5049657;28;20210;-72
2023/02/11 04:19:33;;;;;;;8.38;3.90;;;;;12.50;103120.00;;;;5057890;28;20210;-73
2023/02/11 04:22:02;;;;;;;14.85;4.10;;;;;12.50;103120.00;;;;5069465;28;20202;-72
2023/02/11 04:24:30;;;;;;;12.70;4.43;;;;;12.50;103118.00;;;;5057951;28;20210;-73
2023/02/11 04:26:57;;;;;;;8.27;4.35;;;;;12.50;103120.00;;;;5052139;28;20229;-72
2023/02/11 04:29:25;;;;;;;6.15;3.60;;;;;12.50;103128.00;;;;5049840;28;20203;-73
2023/02/11 04:31:52;;;;;;;9.10;4.82;;;;;12.50;103121.00;;;;5048919;28;20541;-72
2023/02/11 04:34:19;;;;;;;8.27;4.22;;;;;12.50;103127.00;;;;5049511;28;20199;-72
2023/02/11 04:36:46;;;;;;;9.25;4.07;;;;;12.50;103125.00;;;;5048688;28;20203;-72
2023/02/11 04:39:15;;;;;;;12.10;4.28;;;;;12.50;103126.00;;;;5050417;28;20200;-72
2023/02/11 04:41:42;;;;;;;7.85;4.75;;;;;12.50;103126.00;;;;5048813;28;20211;-73
2023/02/11 04:44:09;;;;;;;10.32;5.07;;;;;12.50;103126.00;;;;5050171;28;20207;-72
2023/02/11 04:46:37;;;;;;;14.05;5.00;;;;;12.50;103130.00;;;;5055629;28;20230;-73
2023/02/11 04:49:04;;;;;;;9.13;5.13;;;;;12.60;103143.00;;;;5057961;28;20190;-73
2023/02/11 04:51:32;;;;;;;10.30;5.30;;;;;12.60;103130.00;;;;5057318;28;20203;-72
2023/02/11 04:53:59;;;;;;;8.18;4.72;;;;;12.60;103135.00;;;;5049086;28;20199;-73
2023/02/11 04:56:27;;;;;;;9.13;4.38;;;;;12.60;103129.00;;;;5049129;28;20192;-73
2023/02/11 04:58:55;;;;;;;11.50;4.95;;;;;12.60;103124.00;;;;5047940;28;20673;-73
2023/02/11 05:01:22;;;;;;;11.68;5.65;;;;;12.60;103116.00;;;;5051929;28;20688;-72
2023/02/11 05:03:49;;;;;;;12.30;5.05;;;;;12.60;103119.00;;;;5067211;28;20192;-72
2023/02/11 05:06:17;;;;;;;6.32;4.30;;;;;12.60;103126.00;;;;5057659;28;20196;-72
2023/02/11 05:08:44;;;;;;;12.68;5.05;;;;;12.60;103129.00;;;;5061455;28;20230;-72
2023/02/11 05:11:16;;;;;;;7.88;4.65;;;;;12.50;103128.00;;;;5068134;28;20572;-72
2023/02/11 05:13:45;;;;;;;10.63;4.68;;;;;12.60;103127.00;;;;5067487;28;20726;-72
2023/02/11 05:16:13;;;;;;;12.35;5.30;;;;;12.60;103135.00;;;;5055049;28;20195;-73
2023/02/11 05:18:42;;;;;;;10.65;5.90;;;;;12.60;103140.00;;;;5064194;28;20198;-72
2023/02/11 05:21:12;;;;;;;10.38;5.25;;;;;12.60;103143.00;;;;5055763;28;20199;-72
2023/02/11 05:23:40;;;;;;;10.23;5.38;;;;;12.60;103146.00;;;;5054184;28;20207;-73
2023/02/11 05:26:07;;;;;;;8.40;5.45;;;;;12.60;103133.00;;;;5052827;28;20467;-73
2023/02/11 05:28:35;;;;;;;11.23;5.60;;;;;12.60;103134.00;;;;5047543;28;20227;-73
2023/02/11 05:31:04;;;;;;;7.88;5.38;;;;;12.60;103133.00;;;;5059132;28;20658;-73
2023/02/11 05:33:31;;;;;;;9.88;5.20;;;;;12.60;103138.00;;;;5047369;28;20203;-73
2023/02/11 05:35:59;;;;;;;13.45;6.60;;;;;12.70;103137.00;;;;5056244;28;20199;-73
2023/02/11 05:38:27;;;;;;;12.23;5.45;;;;;12.70;103134.00;;;;5052769;28;20253;-72
2023/02/11 05:40:55;;;;;;;12.70;5.10;;;;;12.70;103131.00;;;;5046938;28;20202;-73
2023/02/11 05:43:23;;;;;;;11.15;5.78;;;;;12.70;103120.00;;;;5048095;28;20203;-73
2023/02/11 05:45:50;;;;;;;12.13;6.15;;;;;12.70;103126.00;;;;5047229;28;20673;-73
2023/02/11 05:48:19;;;;;;;10.13;6.10;;;;;12.70;103117.00;;;;5063548;28;20218;-73
2023/02/11 05:50:46;;;;;;;10.20;5.78;;;;;12.70;103118.00;;;;5067361;28;20236;-73
2023/02/11 05:53:14;;;;;;;12.73;5.60;;;;;12.80;103105.00;;;;5056933;28;20662;-73
2023/02/11 05:55:42;;;;;;;12.35;5.25;;;;;12.80;103115.00;;;;5049121;28;20199;-73
2023/02/11 05:58:09;;;;;;;13.10;6.00;;;;;12.80;103113.00;;;;5052651;28;20211;-73
2023/02/11 06:00:37;;;;;;;9.02;5.63;;;;;12.80;103120.00;;;;5051791;28;20219;-73
2023/02/11 06:03:05;;;;;;;15.93;6.72;;;;;12.80;103124.00;;;;5051165;28;20199;-73
2023/02/11 06:05:34;;;;;;;11.68;5.97;;;;;12.80;103134.00;;;;5052869;28;20206;-73
2023/02/11 06:08:01;;;;;;;9.93;5.57;;;;;12.80;103131.00;;;;5069612;28;20233;-73
2023/02/11 06:10:28;;;;;;;17.45;7.40;;;;;12.80;103130.00;;;;5071090;28;20229;-73
2023/02/11 06:12:55;;;;;;;13.40;6.53;;;;;12.80;103128.00;;;;5071532;28;20704;-73
2023/02/11 06:15:23;;;;;;;12.60;6.55;;;;;12.80;103139.00;;;;5065014;28;20199;-73
2023/02/11 06:17:50;;;;;;;12.50;6.25;;;;;12.80;103134.00;;;;5064686;28;20202;-73
2023/02/11 06:20:17;;;;;;;11.23;6.32;;;;;12.80;103144.00;;;;5072247;28;20221;-73
2023/02/11 06:22:46;;;;;;;11.43;6.25;;;;;12.80;103138.00;;;;5053700;28;20206;-73
2023/02/11 06:25:13;;;;;;;10.10;6.72;;;;;12.90;103138.00;;;;5051945;28;20196;-73
2023/02/11 06:27:41;;;;;;;10.73;6.90;;;;;12.90;103138.00;;;;5063213;28;20237;-73
2023/02/11 06:30:09;;;;;;;13.57;6.85;;;;;12.90;103140.00;;;;5067519;28;20202;-73
2023/02/11 06:32:37;;;;;;;11.13;6.70;;;;;12.90;103138.00;;;;5055616;28;20191;-73
2023/02/11 06:35:04;;;;;;;13.38;7.07;;;;;12.90;103146.00;;;;5065563;28;20191;-73
2023/02/11 06:37:31;;;;;;;11.23;6.75;;;;;12.90;103140.00;;;;5063706;28;20206;-73
2023/02/11 06:40:00;;;;;;;16.40;6.53;;;;;12.90;103146.00;;;;5070952;28;20206;-73
2023/02/11 06:42:27;;;;;;;14.02;6.85;;;;;12.90;103143.00;;;;5064119;28;20286;-72
2023/02/11 06:44:54;;;;;;;11.48;6.72;;;;;13.00;103141.00;;;;5067069;28;20187;-73
2023/02/11 06:47:22;;;;;;;12.73;7.70;;;;;13.00;103138.00;;;;5070850;28;20232;-73
2023/02/11 06:49:49;;;;;;;11.80;7.57;;;;;13.00;103135.00;;;;5067883;28;20207;-73
2023/02/11 06:52:16;;;;;;;15.73;7.82;;;;;13.00;103134.00;;;;5060159;28;20195;-73
2023/02/11 06:54:43;;;;;;;17.38;7.25;;;;;13.00;103134.00;;;;5052603;28;21516;-73
2023/02/11 06:57:12;;;;;;;13.23;7.55;;;;;13.00;103138.00;;;;5054923;28;20620;-73
2023/02/11 06:59:42;;;;;;;10.68;7.03;;;;;13.00;103135.00;;;;5053018;28;20200;-73
2023/02/11 07:02:10;;;;;;;14.35;6.10;;;;;13.00;103142.00;;;;5069158;28;20202;-73
2023/02/11 07:04:37;;;;;;;15.43;6.78;;;;;13.00;103140.00;;;;5064709;28;20572;-73
2023/02/11 07:07:04;;;;;;;11.50;6.88;;;;;13.10;103143.00;;;;5069660;28;20194;-73
2023/02/11 07:09:32;;;;;;;11.32;7.32;;;;;13.10;103148.00;;;;5063296;28;20581;-73
2023/02/11 07:11:59;;;;;;;12.63;7.05;;;;;13.10;103151.00;;;;5064602;28;20204;-73
2023/02/11 07:14:28;;;;;;;11.27;7.07;;;;;13.10;103148.00;;;;5061236;28;20657;-73
2023/02/11 07:16:55;;;;;;;16.55;7.38;;;;;13.10;103160.00;;;;5056049;28;20215;-73
2023/02/11 07:19:22;;;;;;;14.35;7.50;;;;;13.10;103168.00;;;;5058505;28;20206;-73
2023/02/11 07:21:49;;;;;;;14.98;8.65;;;;;13.10;103166.00;;;;5054695;28;20193;-73
2023/02/11 07:24:17;;;;;;;11.82;6.85;;;;;13.20;103168.00;;;;5061665;28;20206;-73
2023/02/11 07:26:44;;;;;;;12.52;7.57;;;;;13.20;103168.00;;;;5058033;28;20191;-73
2023/02/11 07:29:11;;;;;;;14.70;7.90;;;;;13.20;103166.00;;;;5060760;28;20219;-73
2023/02/11 07:31:40;;;;;;;15.93;8.18;;;;;13.20;103170.00;;;;5059687;28;20202;-73
2023/02/11 07:34:07;;;;;;;13.43;7.38;;;;;13.20;103169.00;;;;5055457;28;20202;-73
2023/02/11 07:36:35;;;;;;;13.05;8.15;;;;;13.20;103176.00;;;;5061395;28;20210;-73
2023/02/11 07:39:02;;;;;;;12.32;7.65;;;;;13.20;103186.00;;;;5050511;28;20203;-73
2023/02/11 07:41:29;;;;;;;17.02;8.40;;;;;13.20;103190.00;;;;5060662;28;20194;-73
2023/02/11 07:43:57;;;;;;;12.05;7.93;;;;;13.20;103187.00;;;;5066107;28;20199;-73
2023/02/11 07:46:26;;;;;;;18.77;7.68;;;;;13.20;103186.00;;;;5056060;28;20225;-73
2023/02/11 07:48:56;;;;;;;15.15;7.95;;;;;13.20;103196.00;;;;5055374;28;20234;-73
2023/02/11 07:51:25;;;;;;;12.93;7.32;;;;;13.30;103190.00;;;;5058013;28;20205;-73
2023/02/11 07:53:54;;;;;;;13.00;8.20;;;;;13.30;103190.00;;;;5069394;28;20523;-73
2023/02/11 07:56:22;;;;;;;13.40;8.10;;;;;13.30;103187.00;;;;5068731;28;20213;-73
2023/02/11 07:58:50;;;;;;;14.27;7.55;;;;;13.30;103182.00;;;;5069071;28;20249;-73
2023/02/11 08:01:21;;;;;;;14.73;8.00;;;;;13.30;103186.00;;;;5055368;28;20218;-73
2023/02/11 08:03:48;;;;;;;11.85;7.80;;;;;13.30;103188.00;;;;5059639;28;20206;-73
2023/02/11 08:06:19;;;;;;;11.80;8.00;;;;;13.30;103187.00;;;;5065392;28;20205;-73
2023/02/11 08:08:47;;;;;;;13.30;8.52;;;;;13.40;103181.00;;;;5068391;28;20315;-73
2023/02/11 08:11:17;;;;;;;18.10;8.45;;;;;13.40;103190.00;;;;5059014;28;20741;-73
2023/02/11 08:13:45;;;;;;;13.75;7.97;;;;;13.40;103197.00;;;;5058233;28;20203;-73
2023/02/11 08:16:19;;;;;;;12.75;7.97;;;;;13.30;103196.00;;;;5050818;28;20210;-73
2023/02/11 08:18:47;;;;;;;17.55;8.07;;;;;13.40;103202.00;;;;5056405;28;20202;-73
2023/02/11 08:21:16;;;;;;;13.23;8.02;;;;;13.40;103202.00;;;;5062425;28;20879;-73
2023/02/11 08:23:44;;;;;;;13.77;8.98;;;;;13.40;103208.00;;;;5050012;28;20203;-72
2023/02/11 08:26:13;;;;;;;14.45;8.43;;;;;13.50;103209.00;;;;5055656;28;20203;-72
2023/02/11 08:28:43;;;;;;;16.70;8.20;;;;;13.50;103207.00;;;;5060157;28;20223;-72
2023/02/11 08:31:12;;;;;;;13.82;8.05;;;;;13.50;103206.00;;;;5048051;28;20204;-73
2023/02/11 08:33:40;;;;;;;15.10;7.95;;;;;13.50;103203.00;;;;5058965;28;20187;-72
2023/02/11 08:36:09;;;;;;;13.32;7.93;;;;;13.50;103206.00;;;;5053598;28;20253;-72
2023/02/11 08:38:38;;;;;;;14.15;8.32;;;;;13.50;103207.00;;;;5060201;28;20210;-72
2023/02/11 08:41:06;;;;;;;16.02;8.77;;;;;13.60;103215.00;;;;5057148;28;20203;-72
2023/02/11 08:43:33;;;;;;;14.45;9.50;;;;;13.60;103211.00;;;;5053147;28;20203;-72
2023/02/11 08:46:00;;;;;;;18.88;8.95;;;;;13.60;103217.00;;;;5054537;28;20200;-72
2023/02/11 08:48:28;;;;;;;14.52;8.82;;;;;13.60;103222.00;;;;5061737;28;20685;-72
2023/02/11 08:50:56;;;;;;;15.05;8.80;;;;;13.60;103217.00;;;;5057912;28;20195;-72
2023/02/11 08:53:23;;;;;;;16.55;9.25;;;;;13.60;103210.00;;;;5049781;28;20554;-72
2023/02/11 08:55:53;;;;;;;14.63;8.32;;;;;13.60;103211.00;;;;5052368;28;20203;-72
2023/02/11 08:58:21;;;;;;;12.32;8.00;;;;;13.70;103220.00;;;;5055830;28;20211;-73
2023/02/11 09:00:48;;;;;;;15.88;8.52;;;;;13.70;103217.00;;;;5057191;28;20698;-73
2023/02/11 09:03:16;;;;;;;15.60;9.00;;;;;13.70;103233.00;;;;5055756;28;20210;-73
2023/02/11 09:05:44;;;;;;;12.10;8.43;;;;;13.70;103227.00;;;;5054084;28;20222;-73
2023/02/11 09:08:12;;;;;;;14.82;9.18;;;;;13.70;103228.00;;;;5054884;28;20713;-73
2023/02/11 09:10:40;;;;;;;19.50;9.57;;;;;13.80;103234.00;;;;5060817;28;20607;-73
2023/02/11 09:13:09;;;;;;;19.08;9.65;;;;;13.80;103236.00;;;;5051672;28;20199;-73
2023/02/11 09:15:37;;;;;;;14.02;8.40;;;;;13.80;103244.00;;;;5052593;28;20206;-73
2023/02/11 09:18:04;;;;;;;14.35;8.90;;;;;13.90;103250.00;;;;5049006;28;20488;-73
2023/02/11 09:20:32;;;;;;;14.18;9.15;;;;;13.90;103252.00;;;;5049755;28;20194;-73
2023/02/11 09:22:59;;;;;;;13.82;8.57;;;;;14.00;103247.00;;;;5056613;28;20202;-73
2023/02/11 09:25:27;;;;;;;16.42;10.70;;;;;14.00;103245.00;;;;5060334;28;20188;-73
2023/02/11 09:27:55;;;;;;;15.65;9.02;;;;;14.00;103246.00;;;;5060876;28;20203;-73
2023/02/11 09:30:24;;;;;;;16.65;9.80;;;;;14.10;103243.00;;;;5050099;28;20230;-73
2023/02/11 09:32:51;;;;;;;15.23;9.00;;;;;14.10;103248.00;;;;5059431;28;20207;-74
2023/02/11 09:35:18;;;;;;;17.70;9.93;;;;;14.20;103250.00;;;;5050559;28;20199;-74
2023/02/11 09:37:46;;;;;;;14.65;9.60;;;;;14.20;103248.00;;;;5050879;28;20214;-73
2023/02/11 09:40:14;;;;;;;16.25;9.40;;;;;14.20;103243.00;;;;5057466;28;20187;-74
2023/02/11 09:42:47;;;;;;;14.25;9.43;;;;;14.20;103251.00;;;;5057515;28;20191;-73
2023/02/11 09:45:19;;;;;;;16.77;10.73;;;;;14.30;103264.00;;;;5059543;28;20191;-74
2023/02/11 09:47:52;;;;;;;17.38;9.20;;;;;14.30;103270.00;;;;5060249;28;20226;-73
2023/02/11 09:50:23;;;;;;;14.20;9.48;;;;;14.40;103271.00;;;;5057837;28;20242;-74
2023/02/11 09:52:57;;;;;;;16.98;9.80;;;;;14.40;103269.00;;;;5050974;28;20202;-74
2023/02/11 09:55:27;;;;;;;17.70;10.73;;;;;14.40;103274.00;;;;5056411;28;20583;-73
2023/02/11 09:57:55;;;;;;;16.80;10.85;;;;;14.40;103267.00;;;;5052618;28;20203;-74
2023/02/11 10:00:27;;;;;;;14.55;10.52;;;;;14.50;103267.00;;;;5050275;28;20573;-74
2023/02/11 10:03:11;;;;;;;14.65;9.35;;;;;14.40;103266.00;;;;5061176;28;20207;-75
2023/02/11 10:05:54;;;;;;;15.27;9.10;;;;;14.50;103272.00;;;;5052364;28;20202;-75
2023/02/11 10:08:31;;;;;;;15.95;9.27;;;;;14.60;103279.00;;;;5054509;28;20332;-73
2023/02/11 10:11:03;;;;;;;15.57;10.45;;;;;14.60;103287.00;;;;5056005;28;20202;-74
2023/02/11 10:13:43;;;;;;;18.13;9.95;;;;;14.60;103287.00;;;;5055364;28;20194;-73
2023/02/11 10:16:24;;;;;;;13.15;9.35;;;;;14.60;103284.00;;;;5057067;28;20245;-74
2023/02/11 10:19:12;;;;;;;15.80;9.55;;;;;14.70;103295.00;;;;5057378;28;20203;-74
2023/02/11 10:21:51;;;;;;;14.43;8.82;;;;;14.70;103295.00;;;;5050000;28;20319;-74
2023/02/11 10:24:20;;;;;;;14.10;10.02;;;;;14.80;103299.00;;;;5053491;28;20205;-74
2023/02/11 10:26:47;;;;;;;15.95;10.18;;;;;14.80;103307.00;;;;5056417;28;20206;-74
2023/02/11 10:29:30;;;;;;;15.93;10.10;;;;;14.80;103303.00;;;;5055598;28;20792;-74
2023/02/11 10:31:59;;;;;;;13.32;8.88;;;;;14.90;103318.00;;;;5048310;28;20623;-74
2023/02/11 10:34:27;;;;;;;15.68;9.82;;;;;15.00;103322.00;;;;5060220;28;20191;-75
2023/02/11 10:36:55;;;;;;;14.52;8.57;;;;;15.10;103317.00;;;;5066223;28;20207;-74
2023/02/11 10:39:25;;;;;;;13.38;9.30;;;;;15.10;103317.00;;;;5059592;28;20212;-74
2023/02/11 10:41:56;;;;;;;15.30;10.73;;;;;15.10;103315.00;;;;5063818;28;20209;-74
2023/02/11 10:44:27;;;;;;;13.00;9.55;;;;;15.10;103305.00;;;;5056056;28;20233;-73
2023/02/11 10:46:56;;;;;;;14.10;9.88;;;;;15.20;103315.00;;;;5061846;28;20219;-73
2023/02/11 10:49:41;;;;;;;16.10;10.15;;;;;15.10;103312.00;;;;5069220;28;20234;-73
2023/02/11 10:52:24;;;;;;;15.90;8.75;;;;;15.20;103312.00;;;;5062360;28;20195;-73
2023/02/11 10:55:00;;;;;;;13.02;8.40;;;;;15.30;103321.00;;;;5054374;28;20689;-73
2023/02/11 10:57:31;;;;;;;15.18;9.15;;;;;15.40;103313.00;;;;5061100;28;20206;-73
2023/02/11 11:00:02;;;;;;;15.18;9.20;;;;;15.40;103312.00;;;;5051413;28;20234;-73
2023/02/11 11:02:33;;;;;;;13.02;8.50;;;;;15.50;103315.00;;;;5052863;28;20231;-73
2023/02/11 11:05:05;;;;;;;12.70;9.88;;;;;15.50;103323.00;;;;5052244;28;20192;-73
2023/02/11 11:07:34;;;;;;;13.57;9.15;;;;;15.60;103315.00;;;;5052724;28;20206;-73
2023/02/11 11:10:05;;;;;;;15.20;8.93;;;;;15.70;103315.00;;;;5053210;28;20227;-73
2023/02/11 11:12:36;;;;;;;14.10;8.10;;;;;15.80;103325.00;;;;5062892;28;20203;-73
2023/02/11 11:15:17;;;;;;;11.50;8.23;;;;;15.90;103332.00;;;;5059731;28;20209;-73
2023/02/11 11:17:45;;;;;;;10.27;7.05;;;;;16.10;103326.00;;;;5056149;28;20775;-73
2023/02/11 11:20:34;;;;;;;11.63;7.50;;;;;16.10;103338.00;;;;5052795;28;20198;-73
2023/02/11 11:23:17;;;;;;;13.30;8.27;;;;;16.20;103331.00;;;;5055591;28;20191;-73
2023/02/11 11:25:46;;;;;;;12.35;7.45;;;;;16.40;103338.00;;;;5055269;28;20490;-73
2023/02/11 11:28:24;;;;;;;9.73;7.20;;;;;16.40;103339.00;;;;5062294;28;20195;-73
2023/02/11 11:30:54;;;;;;;10.43;7.28;;;;;16.50;103338.00;;;;5059470;28;20227;-73
2023/02/11 11:33:24;;;;;;;10.27;8.35;;;;;16.50;103342.00;;;;5061590;28;20199;-73
2023/02/11 11:36:00;;;;;;;10.13;6.82;;;;;16.50;103352.00;;;;5053504;28;20206;-73
2023/02/11 11:38:28;;;;;;;12.45;7.25;;;;;16.70;103351.00;;;;5052650;28;20684;-74
2023/02/11 11:41:20;;;;;;;9.32;6.72;;;;;16.60;103363.00;;;;5053630;28;20215;-74
2023/02/11 11:44:01;;;;;;;13.00;7.30;;;;;16.70;103360.00;;;;5056211;28;20191;-74
2023/02/11 11:46:31;;;;;;;7.68;6.07;;;;;16.80;103358.00;;;;5050940;28;20234;-74
2023/02/11 11:49:11;;;;;;;11.07;6.50;;;;;16.90;103359.00;;;;5050312;28;20705;-73
2023/02/11 11:51:43;;;;;;;11.55;6.63;;;;;17.00;103359.00;;;;5063770;28;20236;-73
2023/02/11 11:54:15;;;;;;;11.07;7.20;;;;;17.10;103355.00;;;;5049583;28;20199;-73
2023/02/11 11:56:50;;;;;;;8.95;6.32;;;;;17.10;103346.00;;;;5058877;28;20203;-73
2023/02/11 11:59:18;;;;;;;10.60;7.05;;;;;17.20;103340.00;;;;5051229;28;20199;-74
2023/02/11 12:01:57;;;;;;;10.05;6.53;;;;;17.20;103335.00;;;;5057514;28;20220;-73
2023/02/11 12:04:40;;;;;;;10.88;6.68;;;;;17.20;103332.00;;;;5064926;28;20574;-74
2023/02/11 12:07:23;;;;;;;16.95;10.38;;;;;17.20;103333.00;;;;5064038;28;21690;-73
2023/02/11 12:10:10;;;;;;;14.23;8.55;;;;;17.30;103335.00;;;;5054627;28;20226;-74
2023/02/11 12:12:44;;;;;;;12.25;7.68;;;;;17.30;103342.00;;;;5054891;28;20642;-74
2023/02/11 12:15:31;;;;;;;8.25;6.35;;;;;17.30;103325.00;;;;5065730;28;20203;-73
2023/02/11 12:18:15;;;;;;;8.48;5.60;;;;;17.30;103326.00;;;;5056880;28;20206;-73
2023/02/11 12:21:03;;;;;;;9.68;6.10;;;;;17.30;103314.00;;;;5061594;28;20203;-73